sensor_id;sensor_type;location;lat;lon;timestamp;P1;durP1;ratioP1;P2;durP2;ratioP2
31262;SDS011;17892;52.080;9.006;2023-06-10T00:01:37;5.88;;;2.83;;
31262;SDS011;17892;52.080;9.006;2023-06-10T00:04:03;4.25;;;2.42;;
31262;SDS011;17892;52.080;9.006;2023-06-10T00:06:29;5.30;;;2.50;;
31262;SDS011;17892;52.080;9.006;2023-06-10T00:09:00;4.70;;;2.60;;
31262;SDS011;17892;52.080;9.006;2023-06-10T00:11:31;4.78;;;2.35;;
31262;SDS011;17892;52.080;9.006;2023-06-10T00:13:57;4.25;;;2.30;;
31262;SDS011;17892;52.080;9.006;2023-06-10T00:16:23;5.65;;;2.35;;
31262;SDS011;17892;52.080;9.006;2023-06-10T00:18:50;4.75;;;2.85;;
31262;SDS011;17892;52.080;9.006;2023-06-10T00:21:21;4.72;;;2.15;;
31262;SDS011;17892;52.080;9.006;2023-06-10T00:23:47;4.13;;;2.30;;
31262;SDS011;17892;52.080;9.006;2023-06-10T00:26:13;4.15;;;1.95;;
31262;SDS011;17892;52.080;9.006;2023-06-10T00:28:39;6.55;;;2.75;;
31262;SDS011;17892;52.080;9.006;2023-06-10T00:31:05;4.65;;;2.20;;
31262;SDS011;17892;52.080;9.006;2023-06-10T00:33:30;5.30;;;1.92;;
31262;SDS011;17892;52.080;9.006;2023-06-10T00:35:56;4.65;;;2.38;;
31262;SDS011;17892;52.080;9.006;2023-06-10T00:38:22;4.10;;;2.30;;
31262;SDS011;17892;52.080;9.006;2023-06-10T00:40:48;4.28;;;2.40;;
31262;SDS011;17892;52.080;9.006;2023-06-10T00:43:14;3.95;;;2.22;;
31262;SDS011;17892;52.080;9.006;2023-06-10T00:45:40;4.43;;;2.47;;
31262;SDS011;17892;52.080;9.006;2023-06-10T00:48:05;5.07;;;2.47;;
31262;SDS011;17892;52.080;9.006;2023-06-10T00:50:32;4.53;;;2.28;;
31262;SDS011;17892;52.080;9.006;2023-06-10T00:52:57;5.68;;;2.42;;
31262;SDS011;17892;52.080;9.006;2023-06-10T00:55:24;5.10;;;2.10;;
31262;SDS011;17892;52.080;9.006;2023-06-10T00:57:52;4.40;;;1.65;;
31262;SDS011;17892;52.080;9.006;2023-06-10T01:00:18;3.78;;;1.83;;
31262;SDS011;17892;52.080;9.006;2023-06-10T01:02:45;4.72;;;2.35;;
31262;SDS011;17892;52.080;9.006;2023-06-10T01:05:11;4.82;;;2.00;;
31262;SDS011;17892;52.080;9.006;2023-06-10T01:07:43;5.28;;;2.33;;
31262;SDS011;17892;52.080;9.006;2023-06-10T01:10:33;3.50;;;1.58;;
31262;SDS011;17892;52.080;9.006;2023-06-10T01:13:27;3.00;;;1.42;;
31262;SDS011;17892;52.080;9.006;2023-06-10T01:15:54;3.03;;;1.30;;
31262;SDS011;17892;52.080;9.006;2023-06-10T01:18:21;4.35;;;1.60;;
31262;SDS011;17892;52.080;9.006;2023-06-10T01:20:47;2.92;;;1.35;;
31262;SDS011;17892;52.080;9.006;2023-06-10T01:23:13;2.90;;;1.50;;
31262;SDS011;17892;52.080;9.006;2023-06-10T01:25:41;3.00;;;1.40;;
31262;SDS011;17892;52.080;9.006;2023-06-10T01:28:22;2.90;;;1.40;;
31262;SDS011;17892;52.080;9.006;2023-06-10T01:31:16;2.58;;;1.10;;
31262;SDS011;17892;52.080;9.006;2023-06-10T01:33:51;2.83;;;1.42;;
31262;SDS011;17892;52.080;9.006;2023-06-10T01:36:18;3.08;;;1.40;;
31262;SDS011;17892;52.080;9.006;2023-06-10T01:38:47;2.97;;;1.45;;
31262;SDS011;17892;52.080;9.006;2023-06-10T01:41:18;4.80;;;1.50;;
31262;SDS011;17892;52.080;9.006;2023-06-10T01:43:46;3.22;;;1.65;;
31262;SDS011;17892;52.080;9.006;2023-06-10T01:46:13;3.20;;;1.48;;
31262;SDS011;17892;52.080;9.006;2023-06-10T01:48:40;2.60;;;1.27;;
31262;SDS011;17892;52.080;9.006;2023-06-10T01:51:07;3.45;;;1.30;;
31262;SDS011;17892;52.080;9.006;2023-06-10T01:53:32;2.63;;;1.17;;
31262;SDS011;17892;52.080;9.006;2023-06-10T01:55:58;3.45;;;1.20;;
31262;SDS011;17892;52.080;9.006;2023-06-10T01:58:24;2.90;;;1.55;;
31262;SDS011;17892;52.080;9.006;2023-06-10T02:00:50;2.90;;;1.52;;
31262;SDS011;17892;52.080;9.006;2023-06-10T02:03:16;3.67;;;1.38;;
31262;SDS011;17892;52.080;9.006;2023-06-10T02:05:42;2.70;;;1.15;;
31262;SDS011;17892;52.080;9.006;2023-06-10T02:08:08;2.63;;;1.17;;
31262;SDS011;17892;52.080;9.006;2023-06-10T02:10:34;2.67;;;1.48;;
31262;SDS011;17892;52.080;9.006;2023-06-10T02:13:00;3.00;;;1.48;;
31262;SDS011;17892;52.080;9.006;2023-06-10T02:15:26;3.15;;;1.50;;
31262;SDS011;17892;52.080;9.006;2023-06-10T02:17:51;3.22;;;1.40;;
31262;SDS011;17892;52.080;9.006;2023-06-10T02:20:17;2.83;;;1.30;;
31262;SDS011;17892;52.080;9.006;2023-06-10T02:22:44;2.63;;;1.30;;
31262;SDS011;17892;52.080;9.006;2023-06-10T02:25:09;3.80;;;1.30;;
31262;SDS011;17892;52.080;9.006;2023-06-10T02:27:35;3.70;;;1.45;;
31262;SDS011;17892;52.080;9.006;2023-06-10T02:30:01;2.50;;;1.10;;
31262;SDS011;17892;52.080;9.006;2023-06-10T02:32:27;3.50;;;1.40;;
31262;SDS011;17892;52.080;9.006;2023-06-10T02:34:53;3.35;;;1.42;;
31262;SDS011;17892;52.080;9.006;2023-06-10T02:37:19;2.80;;;1.30;;
31262;SDS011;17892;52.080;9.006;2023-06-10T02:39:45;2.83;;;1.15;;
31262;SDS011;17892;52.080;9.006;2023-06-10T02:42:11;4.72;;;1.50;;
31262;SDS011;17892;52.080;9.006;2023-06-10T02:44:37;3.42;;;1.52;;
31262;SDS011;17892;52.080;9.006;2023-06-10T02:47:03;4.22;;;1.48;;
31262;SDS011;17892;52.080;9.006;2023-06-10T02:49:29;2.92;;;1.40;;
31262;SDS011;17892;52.080;9.006;2023-06-10T02:51:55;2.88;;;1.60;;
31262;SDS011;17892;52.080;9.006;2023-06-10T02:54:22;3.30;;;1.40;;
31262;SDS011;17892;52.080;9.006;2023-06-10T02:56:51;3.10;;;1.92;;
31262;SDS011;17892;52.080;9.006;2023-06-10T02:59:17;5.40;;;1.75;;
31262;SDS011;17892;52.080;9.006;2023-06-10T03:01:43;3.40;;;1.40;;
31262;SDS011;17892;52.080;9.006;2023-06-10T03:04:10;3.40;;;1.35;;
31262;SDS011;17892;52.080;9.006;2023-06-10T03:06:38;3.72;;;1.67;;
31262;SDS011;17892;52.080;9.006;2023-06-10T03:09:05;2.85;;;1.30;;
31262;SDS011;17892;52.080;9.006;2023-06-10T03:11:35;3.05;;;1.50;;
31262;SDS011;17892;52.080;9.006;2023-06-10T03:14:01;4.75;;;1.50;;
31262;SDS011;17892;52.080;9.006;2023-06-10T03:16:27;3.97;;;1.40;;
31262;SDS011;17892;52.080;9.006;2023-06-10T03:18:53;3.78;;;1.60;;
31262;SDS011;17892;52.080;9.006;2023-06-10T03:21:18;4.43;;;1.58;;
31262;SDS011;17892;52.080;9.006;2023-06-10T03:23:44;4.07;;;1.40;;
31262;SDS011;17892;52.080;9.006;2023-06-10T03:26:10;3.60;;;1.42;;
31262;SDS011;17892;52.080;9.006;2023-06-10T03:28:37;2.55;;;1.13;;
31262;SDS011;17892;52.080;9.006;2023-06-10T03:31:03;3.92;;;1.38;;
31262;SDS011;17892;52.080;9.006;2023-06-10T03:33:29;4.10;;;1.70;;
31262;SDS011;17892;52.080;9.006;2023-06-10T03:35:55;3.25;;;1.40;;
31262;SDS011;17892;52.080;9.006;2023-06-10T03:38:20;3.20;;;1.30;;
31262;SDS011;17892;52.080;9.006;2023-06-10T03:40:46;5.53;;;1.33;;
31262;SDS011;17892;52.080;9.006;2023-06-10T03:43:12;3.10;;;1.52;;
31262;SDS011;17892;52.080;9.006;2023-06-10T03:45:38;3.10;;;1.48;;
31262;SDS011;17892;52.080;9.006;2023-06-10T03:48:04;2.67;;;1.25;;
31262;SDS011;17892;52.080;9.006;2023-06-10T03:50:31;2.88;;;1.25;;
31262;SDS011;17892;52.080;9.006;2023-06-10T03:52:57;3.00;;;1.20;;
31262;SDS011;17892;52.080;9.006;2023-06-10T03:55:23;3.65;;;1.50;;
31262;SDS011;17892;52.080;9.006;2023-06-10T03:57:49;2.63;;;1.35;;
31262;SDS011;17892;52.080;9.006;2023-06-10T04:00:15;2.42;;;1.17;;
31262;SDS011;17892;52.080;9.006;2023-06-10T04:02:43;2.67;;;1.10;;
31262;SDS011;17892;52.080;9.006;2023-06-10T04:05:14;3.15;;;1.60;;
31262;SDS011;17892;52.080;9.006;2023-06-10T04:07:41;2.72;;;1.33;;
31262;SDS011;17892;52.080;9.006;2023-06-10T04:10:09;3.03;;;1.10;;
31262;SDS011;17892;52.080;9.006;2023-06-10T04:12:36;2.67;;;1.13;;
31262;SDS011;17892;52.080;9.006;2023-06-10T04:15:03;3.55;;;1.70;;
31262;SDS011;17892;52.080;9.006;2023-06-10T04:17:29;2.95;;;1.52;;
31262;SDS011;17892;52.080;9.006;2023-06-10T04:19:55;4.25;;;1.58;;
31262;SDS011;17892;52.080;9.006;2023-06-10T04:22:22;4.28;;;1.55;;
31262;SDS011;17892;52.080;9.006;2023-06-10T04:24:49;4.60;;;1.48;;
31262;SDS011;17892;52.080;9.006;2023-06-10T04:27:14;4.07;;;1.50;;
31262;SDS011;17892;52.080;9.006;2023-06-10T04:29:40;3.47;;;1.42;;
31262;SDS011;17892;52.080;9.006;2023-06-10T04:32:06;3.53;;;1.63;;
31262;SDS011;17892;52.080;9.006;2023-06-10T04:34:33;6.53;;;1.95;;
31262;SDS011;17892;52.080;9.006;2023-06-10T04:36:59;4.50;;;1.40;;
31262;SDS011;17892;52.080;9.006;2023-06-10T04:39:25;4.60;;;1.67;;
31262;SDS011;17892;52.080;9.006;2023-06-10T04:41:51;3.88;;;1.67;;
31262;SDS011;17892;52.080;9.006;2023-06-10T04:44:17;2.67;;;1.25;;
31262;SDS011;17892;52.080;9.006;2023-06-10T04:46:43;4.88;;;1.50;;
31262;SDS011;17892;52.080;9.006;2023-06-10T04:49:10;3.75;;;1.52;;
31262;SDS011;17892;52.080;9.006;2023-06-10T04:51:39;2.95;;;1.48;;
31262;SDS011;17892;52.080;9.006;2023-06-10T04:54:04;2.15;;;1.23;;
31262;SDS011;17892;52.080;9.006;2023-06-10T04:56:30;2.88;;;1.42;;
31262;SDS011;17892;52.080;9.006;2023-06-10T04:58:57;3.50;;;1.60;;
31262;SDS011;17892;52.080;9.006;2023-06-10T05:01:23;3.70;;;1.80;;
31262;SDS011;17892;52.080;9.006;2023-06-10T05:03:48;3.97;;;1.77;;
31262;SDS011;17892;52.080;9.006;2023-06-10T05:06:14;3.17;;;1.70;;
31262;SDS011;17892;52.080;9.006;2023-06-10T05:08:40;3.28;;;1.83;;
31262;SDS011;17892;52.080;9.006;2023-06-10T05:11:06;5.32;;;1.77;;
31262;SDS011;17892;52.080;9.006;2023-06-10T05:13:32;4.22;;;1.80;;
31262;SDS011;17892;52.080;9.006;2023-06-10T05:15:58;3.30;;;1.70;;
31262;SDS011;17892;52.080;9.006;2023-06-10T05:18:23;3.85;;;1.73;;
31262;SDS011;17892;52.080;9.006;2023-06-10T05:20:49;3.60;;;1.75;;
31262;SDS011;17892;52.080;9.006;2023-06-10T05:23:15;2.80;;;1.60;;
31262;SDS011;17892;52.080;9.006;2023-06-10T05:25:41;4.05;;;1.90;;
31262;SDS011;17892;52.080;9.006;2023-06-10T05:28:07;2.80;;;1.52;;
31262;SDS011;17892;52.080;9.006;2023-06-10T05:30:35;4.68;;;1.85;;
31262;SDS011;17892;52.080;9.006;2023-06-10T05:33:01;5.15;;;1.83;;
31262;SDS011;17892;52.080;9.006;2023-06-10T05:35:28;6.18;;;1.95;;
31262;SDS011;17892;52.080;9.006;2023-06-10T05:37:54;4.30;;;1.60;;
31262;SDS011;17892;52.080;9.006;2023-06-10T05:40:20;4.22;;;1.60;;
31262;SDS011;17892;52.080;9.006;2023-06-10T05:42:45;3.45;;;1.80;;
31262;SDS011;17892;52.080;9.006;2023-06-10T05:45:11;3.10;;;1.52;;
31262;SDS011;17892;52.080;9.006;2023-06-10T05:47:37;4.57;;;1.80;;
31262;SDS011;17892;52.080;9.006;2023-06-10T05:50:03;4.15;;;1.70;;
31262;SDS011;17892;52.080;9.006;2023-06-10T05:52:32;3.47;;;1.58;;
31262;SDS011;17892;52.080;9.006;2023-06-10T05:54:59;3.83;;;1.60;;
31262;SDS011;17892;52.080;9.006;2023-06-10T05:57:25;4.43;;;2.00;;
31262;SDS011;17892;52.080;9.006;2023-06-10T05:59:51;3.40;;;1.92;;
31262;SDS011;17892;52.080;9.006;2023-06-10T06:02:17;3.33;;;1.70;;
31262;SDS011;17892;52.080;9.006;2023-06-10T06:04:42;3.83;;;1.77;;
31262;SDS011;17892;52.080;9.006;2023-06-10T06:07:08;5.68;;;1.98;;
31262;SDS011;17892;52.080;9.006;2023-06-10T06:09:34;3.78;;;1.90;;
31262;SDS011;17892;52.080;9.006;2023-06-10T06:11:59;4.50;;;2.00;;
31262;SDS011;17892;52.080;9.006;2023-06-10T06:14:25;4.85;;;1.90;;
31262;SDS011;17892;52.080;9.006;2023-06-10T06:16:51;3.80;;;1.80;;
31262;SDS011;17892;52.080;9.006;2023-06-10T06:19:16;3.00;;;1.50;;
31262;SDS011;17892;52.080;9.006;2023-06-10T06:21:42;3.50;;;1.90;;
31262;SDS011;17892;52.080;9.006;2023-06-10T06:24:08;4.38;;;2.10;;
31262;SDS011;17892;52.080;9.006;2023-06-10T06:26:34;3.10;;;1.70;;
31262;SDS011;17892;52.080;9.006;2023-06-10T06:28:59;4.03;;;1.58;;
31262;SDS011;17892;52.080;9.006;2023-06-10T06:31:25;5.90;;;2.17;;
31262;SDS011;17892;52.080;9.006;2023-06-10T06:33:51;3.08;;;1.63;;
31262;SDS011;17892;52.080;9.006;2023-06-10T06:36:16;3.67;;;1.60;;
31262;SDS011;17892;52.080;9.006;2023-06-10T06:38:42;3.55;;;1.77;;
31262;SDS011;17892;52.080;9.006;2023-06-10T06:41:08;4.53;;;1.88;;
31262;SDS011;17892;52.080;9.006;2023-06-10T06:43:33;3.90;;;1.83;;
31262;SDS011;17892;52.080;9.006;2023-06-10T06:45:59;4.38;;;1.95;;
31262;SDS011;17892;52.080;9.006;2023-06-10T06:48:25;3.78;;;1.40;;
31262;SDS011;17892;52.080;9.006;2023-06-10T06:50:51;4.45;;;1.90;;
31262;SDS011;17892;52.080;9.006;2023-06-10T06:53:17;3.95;;;1.90;;
31262;SDS011;17892;52.080;9.006;2023-06-10T06:55:42;3.85;;;2.00;;
31262;SDS011;17892;52.080;9.006;2023-06-10T06:58:08;3.63;;;1.90;;
31262;SDS011;17892;52.080;9.006;2023-06-10T07:00:33;3.28;;;1.50;;
31262;SDS011;17892;52.080;9.006;2023-06-10T07:02:59;4.22;;;2.17;;
31262;SDS011;17892;52.080;9.006;2023-06-10T07:05:25;4.43;;;1.77;;
31262;SDS011;17892;52.080;9.006;2023-06-10T07:07:52;4.15;;;1.85;;
31262;SDS011;17892;52.080;9.006;2023-06-10T07:10:23;3.83;;;2.20;;
31262;SDS011;17892;52.080;9.006;2023-06-10T07:12:50;3.05;;;1.60;;
31262;SDS011;17892;52.080;9.006;2023-06-10T07:15:16;4.68;;;1.95;;
31262;SDS011;17892;52.080;9.006;2023-06-10T07:17:42;4.00;;;2.17;;
31262;SDS011;17892;52.080;9.006;2023-06-10T07:20:08;4.70;;;2.03;;
31262;SDS011;17892;52.080;9.006;2023-06-10T07:22:34;4.55;;;2.30;;
31262;SDS011;17892;52.080;9.006;2023-06-10T07:25:00;3.70;;;2.15;;
31262;SDS011;17892;52.080;9.006;2023-06-10T07:27:25;3.85;;;2.35;;
31262;SDS011;17892;52.080;9.006;2023-06-10T07:29:51;4.32;;;1.92;;
31262;SDS011;17892;52.080;9.006;2023-06-10T07:32:17;3.90;;;2.17;;
31262;SDS011;17892;52.080;9.006;2023-06-10T07:34:43;4.38;;;2.00;;
31262;SDS011;17892;52.080;9.006;2023-06-10T07:37:08;4.80;;;2.08;;
31262;SDS011;17892;52.080;9.006;2023-06-10T07:39:34;4.75;;;2.42;;
31262;SDS011;17892;52.080;9.006;2023-06-10T07:42:00;3.38;;;1.92;;
31262;SDS011;17892;52.080;9.006;2023-06-10T07:44:26;4.22;;;2.15;;
31262;SDS011;17892;52.080;9.006;2023-06-10T07:46:52;3.47;;;2.00;;
31262;SDS011;17892;52.080;9.006;2023-06-10T07:49:17;4.32;;;2.38;;
31262;SDS011;17892;52.080;9.006;2023-06-10T07:51:43;3.85;;;1.73;;
31262;SDS011;17892;52.080;9.006;2023-06-10T07:54:09;4.65;;;1.85;;
31262;SDS011;17892;52.080;9.006;2023-06-10T07:56:37;5.18;;;2.40;;
31262;SDS011;17892;52.080;9.006;2023-06-10T07:59:03;5.80;;;2.83;;
31262;SDS011;17892;52.080;9.006;2023-06-10T08:01:29;4.15;;;2.10;;
31262;SDS011;17892;52.080;9.006;2023-06-10T08:03:55;3.58;;;1.90;;
31262;SDS011;17892;52.080;9.006;2023-06-10T08:06:20;3.97;;;2.10;;
31262;SDS011;17892;52.080;9.006;2023-06-10T08:08:46;5.47;;;2.22;;
31262;SDS011;17892;52.080;9.006;2023-06-10T08:11:12;5.13;;;2.53;;
31262;SDS011;17892;52.080;9.006;2023-06-10T08:13:38;3.58;;;2.03;;
31262;SDS011;17892;52.080;9.006;2023-06-10T08:16:05;5.05;;;2.45;;
31262;SDS011;17892;52.080;9.006;2023-06-10T08:18:30;4.95;;;2.38;;
31262;SDS011;17892;52.080;9.006;2023-06-10T08:20:56;8.23;;;2.92;;
31262;SDS011;17892;52.080;9.006;2023-06-10T08:23:22;3.83;;;2.30;;
31262;SDS011;17892;52.080;9.006;2023-06-10T08:25:48;4.30;;;2.58;;
31262;SDS011;17892;52.080;9.006;2023-06-10T08:28:14;5.38;;;2.63;;
31262;SDS011;17892;52.080;9.006;2023-06-10T08:30:39;3.80;;;2.10;;
31262;SDS011;17892;52.080;9.006;2023-06-10T08:33:05;3.53;;;2.00;;
31262;SDS011;17892;52.080;9.006;2023-06-10T08:35:31;4.30;;;2.65;;
31262;SDS011;17892;52.080;9.006;2023-06-10T08:37:57;4.57;;;2.45;;
31262;SDS011;17892;52.080;9.006;2023-06-10T08:40:22;5.18;;;2.67;;
31262;SDS011;17892;52.080;9.006;2023-06-10T08:42:50;4.60;;;2.53;;
31262;SDS011;17892;52.080;9.006;2023-06-10T08:45:35;4.85;;;2.60;;
31262;SDS011;17892;52.080;9.006;2023-06-10T08:48:04;3.83;;;2.08;;
31262;SDS011;17892;52.080;9.006;2023-06-10T08:50:34;4.78;;;2.38;;
31262;SDS011;17892;52.080;9.006;2023-06-10T08:53:04;4.18;;;2.30;;
31262;SDS011;17892;52.080;9.006;2023-06-10T08:55:32;5.25;;;2.63;;
31262;SDS011;17892;52.080;9.006;2023-06-10T08:58:01;4.03;;;2.38;;
31262;SDS011;17892;52.080;9.006;2023-06-10T09:00:28;4.22;;;2.30;;
31262;SDS011;17892;52.080;9.006;2023-06-10T09:02:56;5.07;;;2.65;;
31262;SDS011;17892;52.080;9.006;2023-06-10T09:05:23;4.68;;;2.50;;
31262;SDS011;17892;52.080;9.006;2023-06-10T09:07:51;3.67;;;2.10;;
31262;SDS011;17892;52.080;9.006;2023-06-10T09:10:17;4.53;;;2.70;;
31262;SDS011;17892;52.080;9.006;2023-06-10T09:12:43;4.68;;;2.63;;
31262;SDS011;17892;52.080;9.006;2023-06-10T09:15:09;3.92;;;2.00;;
31262;SDS011;17892;52.080;9.006;2023-06-10T09:17:37;4.47;;;3.08;;
31262;SDS011;17892;52.080;9.006;2023-06-10T09:20:05;4.15;;;2.78;;
31262;SDS011;17892;52.080;9.006;2023-06-10T09:22:34;3.88;;;2.30;;
31262;SDS011;17892;52.080;9.006;2023-06-10T09:25:03;4.22;;;2.20;;
31262;SDS011;17892;52.080;9.006;2023-06-10T09:27:43;4.13;;;2.25;;
31262;SDS011;17892;52.080;9.006;2023-06-10T09:33:00;3.70;;;2.10;;
31262;SDS011;17892;52.080;9.006;2023-06-10T09:35:29;3.08;;;1.70;;
31262;SDS011;17892;52.080;9.006;2023-06-10T09:37:56;3.95;;;2.20;;
31262;SDS011;17892;52.080;9.006;2023-06-10T09:40:24;3.67;;;1.98;;
31262;SDS011;17892;52.080;9.006;2023-06-10T09:42:54;3.67;;;2.13;;
31262;SDS011;17892;52.080;9.006;2023-06-10T09:45:22;4.18;;;2.42;;
31262;SDS011;17892;52.080;9.006;2023-06-10T09:50:18;3.78;;;2.00;;
31262;SDS011;17892;52.080;9.006;2023-06-10T09:52:44;4.57;;;2.40;;
31262;SDS011;17892;52.080;9.006;2023-06-10T09:55:11;3.90;;;2.08;;
31262;SDS011;17892;52.080;9.006;2023-06-10T09:57:36;4.90;;;1.98;;
31262;SDS011;17892;52.080;9.006;2023-06-10T10:00:04;3.67;;;1.90;;
31262;SDS011;17892;52.080;9.006;2023-06-10T10:02:33;3.22;;;1.95;;
31262;SDS011;17892;52.080;9.006;2023-06-10T10:05:17;3.65;;;2.13;;
31262;SDS011;17892;52.080;9.006;2023-06-10T10:07:45;3.47;;;2.08;;
31262;SDS011;17892;52.080;9.006;2023-06-10T10:10:12;4.15;;;2.13;;
31262;SDS011;17892;52.080;9.006;2023-06-10T10:12:40;4.65;;;2.58;;
31262;SDS011;17892;52.080;9.006;2023-06-10T10:15:07;3.65;;;2.60;;
31262;SDS011;17892;52.080;9.006;2023-06-10T10:17:55;4.20;;;2.60;;
31262;SDS011;17892;52.080;9.006;2023-06-10T10:20:29;3.83;;;2.22;;
31262;SDS011;17892;52.080;9.006;2023-06-10T10:22:58;4.45;;;2.42;;
31262;SDS011;17892;52.080;9.006;2023-06-10T10:25:29;3.78;;;1.95;;
31262;SDS011;17892;52.080;9.006;2023-06-10T10:28:08;3.50;;;2.03;;
31262;SDS011;17892;52.080;9.006;2023-06-10T10:30:39;4.25;;;2.20;;
31262;SDS011;17892;52.080;9.006;2023-06-10T10:33:18;3.72;;;2.20;;
31262;SDS011;17892;52.080;9.006;2023-06-10T10:35:48;3.50;;;2.30;;
31262;SDS011;17892;52.080;9.006;2023-06-10T10:38:15;3.33;;;2.10;;
31262;SDS011;17892;52.080;9.006;2023-06-10T10:40:41;4.50;;;2.80;;
31262;SDS011;17892;52.080;9.006;2023-06-10T10:43:09;4.18;;;2.55;;
31262;SDS011;17892;52.080;9.006;2023-06-10T10:45:35;3.60;;;2.25;;
31262;SDS011;17892;52.080;9.006;2023-06-10T10:48:04;4.93;;;2.17;;
31262;SDS011;17892;52.080;9.006;2023-06-10T10:50:36;3.47;;;2.10;;
31262;SDS011;17892;52.080;9.006;2023-06-10T10:53:03;3.90;;;2.25;;
31262;SDS011;17892;52.080;9.006;2023-06-10T10:55:31;4.60;;;2.15;;
31262;SDS011;17892;52.080;9.006;2023-06-10T10:58:06;4.68;;;2.47;;
31262;SDS011;17892;52.080;9.006;2023-06-10T11:00:35;4.00;;;2.10;;
31262;SDS011;17892;52.080;9.006;2023-06-10T11:05:47;3.65;;;2.53;;
31262;SDS011;17892;52.080;9.006;2023-06-10T11:08:14;4.10;;;2.30;;
31262;SDS011;17892;52.080;9.006;2023-06-10T11:11:22;4.55;;;2.30;;
31262;SDS011;17892;52.080;9.006;2023-06-10T11:16:38;3.90;;;2.30;;
31262;SDS011;17892;52.080;9.006;2023-06-10T11:19:06;3.22;;;1.70;;
31262;SDS011;17892;52.080;9.006;2023-06-10T11:21:32;3.97;;;1.83;;
31262;SDS011;17892;52.080;9.006;2023-06-10T11:24:23;4.97;;;2.47;;
31262;SDS011;17892;52.080;9.006;2023-06-10T11:26:51;3.40;;;2.20;;
31262;SDS011;17892;52.080;9.006;2023-06-10T11:29:16;3.15;;;2.10;;
31262;SDS011;17892;52.080;9.006;2023-06-10T11:31:43;3.50;;;1.95;;
31262;SDS011;17892;52.080;9.006;2023-06-10T11:34:14;4.20;;;2.25;;
31262;SDS011;17892;52.080;9.006;2023-06-10T11:36:48;4.65;;;2.38;;
31262;SDS011;17892;52.080;9.006;2023-06-10T11:39:14;5.63;;;2.22;;
31262;SDS011;17892;52.080;9.006;2023-06-10T11:41:40;3.78;;;2.22;;
31262;SDS011;17892;52.080;9.006;2023-06-10T11:44:10;4.32;;;2.38;;
31262;SDS011;17892;52.080;9.006;2023-06-10T11:46:37;4.95;;;2.83;;
31262;SDS011;17892;52.080;9.006;2023-06-10T11:49:04;4.22;;;2.92;;
31262;SDS011;17892;52.080;9.006;2023-06-10T11:51:35;3.92;;;2.47;;
31262;SDS011;17892;52.080;9.006;2023-06-10T11:54:04;3.42;;;2.05;;
31262;SDS011;17892;52.080;9.006;2023-06-10T11:56:30;3.80;;;2.50;;
31262;SDS011;17892;52.080;9.006;2023-06-10T11:58:57;4.45;;;2.35;;
31262;SDS011;17892;52.080;9.006;2023-06-10T12:01:33;3.97;;;2.53;;
31262;SDS011;17892;52.080;9.006;2023-06-10T12:04:11;4.03;;;2.60;;
31262;SDS011;17892;52.080;9.006;2023-06-10T12:06:41;4.30;;;3.15;;
31262;SDS011;17892;52.080;9.006;2023-06-10T12:09:18;4.18;;;2.58;;
31262;SDS011;17892;52.080;9.006;2023-06-10T12:20:05;4.05;;;2.60;;
31262;SDS011;17892;52.080;9.006;2023-06-10T12:22:39;5.15;;;3.00;;
31262;SDS011;17892;52.080;9.006;2023-06-10T12:25:07;4.72;;;3.15;;
31262;SDS011;17892;52.080;9.006;2023-06-10T12:27:34;3.95;;;2.67;;
31262;SDS011;17892;52.080;9.006;2023-06-10T12:30:02;4.03;;;3.00;;
31262;SDS011;17892;52.080;9.006;2023-06-10T12:32:50;3.95;;;2.42;;
31262;SDS011;17892;52.080;9.006;2023-06-10T12:35:17;3.40;;;2.50;;
31262;SDS011;17892;52.080;9.006;2023-06-10T12:37:59;5.50;;;3.25;;
31262;SDS011;17892;52.080;9.006;2023-06-10T12:40:32;4.88;;;2.85;;
31262;SDS011;17892;52.080;9.006;2023-06-10T12:43:02;4.75;;;2.83;;
31262;SDS011;17892;52.080;9.006;2023-06-10T12:45:38;4.25;;;2.90;;
31262;SDS011;17892;52.080;9.006;2023-06-10T12:50:38;6.18;;;3.28;;
31262;SDS011;17892;52.080;9.006;2023-06-10T12:53:07;4.82;;;3.10;;
31262;SDS011;17892;52.080;9.006;2023-06-10T12:55:36;4.90;;;3.25;;
31262;SDS011;17892;52.080;9.006;2023-06-10T12:58:02;5.10;;;3.20;;
31262;SDS011;17892;52.080;9.006;2023-06-10T13:00:28;3.97;;;3.10;;
31262;SDS011;17892;52.080;9.006;2023-06-10T13:03:00;5.13;;;3.10;;
31262;SDS011;17892;52.080;9.006;2023-06-10T13:05:26;5.40;;;4.00;;
31262;SDS011;17892;52.080;9.006;2023-06-10T13:07:53;6.38;;;4.20;;
31262;SDS011;17892;52.080;9.006;2023-06-10T13:10:20;5.05;;;3.45;;
31262;SDS011;17892;52.080;9.006;2023-06-10T13:12:46;5.38;;;4.10;;
31262;SDS011;17892;52.080;9.006;2023-06-10T13:15:12;5.82;;;3.80;;
31262;SDS011;17892;52.080;9.006;2023-06-10T13:17:39;6.35;;;4.45;;
31262;SDS011;17892;52.080;9.006;2023-06-10T13:22:34;6.38;;;5.03;;
31262;SDS011;17892;52.080;9.006;2023-06-10T13:25:04;6.05;;;4.15;;
31262;SDS011;17892;52.080;9.006;2023-06-10T13:27:34;6.80;;;5.13;;
31262;SDS011;17892;52.080;9.006;2023-06-10T13:30:03;5.40;;;4.22;;
31262;SDS011;17892;52.080;9.006;2023-06-10T13:32:30;6.03;;;4.53;;
31262;SDS011;17892;52.080;9.006;2023-06-10T13:34:56;5.85;;;4.10;;
31262;SDS011;17892;52.080;9.006;2023-06-10T13:37:22;5.13;;;4.00;;
31262;SDS011;17892;52.080;9.006;2023-06-10T13:39:48;5.85;;;4.43;;
31262;SDS011;17892;52.080;9.006;2023-06-10T13:42:16;6.68;;;4.30;;
31262;SDS011;17892;52.080;9.006;2023-06-10T13:44:42;5.75;;;4.40;;
31262;SDS011;17892;52.080;9.006;2023-06-10T13:47:08;4.70;;;4.22;;
31262;SDS011;17892;52.080;9.006;2023-06-10T13:49:34;6.78;;;4.97;;
31262;SDS011;17892;52.080;9.006;2023-06-10T13:52:00;5.68;;;4.57;;
31262;SDS011;17892;52.080;9.006;2023-06-10T13:54:26;6.55;;;5.43;;
31262;SDS011;17892;52.080;9.006;2023-06-10T13:56:52;6.47;;;4.35;;
31262;SDS011;17892;52.080;9.006;2023-06-10T13:59:19;7.32;;;4.70;;
31262;SDS011;17892;52.080;9.006;2023-06-10T14:01:45;6.00;;;4.55;;
31262;SDS011;17892;52.080;9.006;2023-06-10T14:04:11;5.68;;;4.43;;
31262;SDS011;17892;52.080;9.006;2023-06-10T14:06:37;5.97;;;4.47;;
31262;SDS011;17892;52.080;9.006;2023-06-10T14:09:03;5.93;;;4.60;;
31262;SDS011;17892;52.080;9.006;2023-06-10T14:11:29;6.28;;;4.68;;
31262;SDS011;17892;52.080;9.006;2023-06-10T14:13:55;10.82;;;5.28;;
31262;SDS011;17892;52.080;9.006;2023-06-10T14:16:25;4.65;;;3.83;;
31262;SDS011;17892;52.080;9.006;2023-06-10T14:18:51;5.40;;;4.07;;
31262;SDS011;17892;52.080;9.006;2023-06-10T14:21:17;4.43;;;3.90;;
31262;SDS011;17892;52.080;9.006;2023-06-10T14:23:42;8.10;;;4.72;;
31262;SDS011;17892;52.080;9.006;2023-06-10T14:26:09;5.35;;;4.25;;
31262;SDS011;17892;52.080;9.006;2023-06-10T14:28:35;5.55;;;4.30;;
31262;SDS011;17892;52.080;9.006;2023-06-10T14:31:01;5.60;;;4.00;;
31262;SDS011;17892;52.080;9.006;2023-06-10T14:33:27;5.07;;;3.45;;
31262;SDS011;17892;52.080;9.006;2023-06-10T14:35:53;5.00;;;3.85;;
31262;SDS011;17892;52.080;9.006;2023-06-10T14:38:19;5.68;;;4.32;;
31262;SDS011;17892;52.080;9.006;2023-06-10T14:40:45;5.10;;;3.72;;
31262;SDS011;17892;52.080;9.006;2023-06-10T14:43:11;4.78;;;3.85;;
31262;SDS011;17892;52.080;9.006;2023-06-10T14:45:37;5.20;;;4.70;;
31262;SDS011;17892;52.080;9.006;2023-06-10T14:48:04;5.47;;;4.03;;
31262;SDS011;17892;52.080;9.006;2023-06-10T14:50:32;6.47;;;4.10;;
31262;SDS011;17892;52.080;9.006;2023-06-10T14:52:59;5.57;;;4.10;;
31262;SDS011;17892;52.080;9.006;2023-06-10T14:55:25;6.95;;;3.92;;
31262;SDS011;17892;52.080;9.006;2023-06-10T14:57:51;4.88;;;3.60;;
31262;SDS011;17892;52.080;9.006;2023-06-10T15:00:17;5.22;;;4.15;;
31262;SDS011;17892;52.080;9.006;2023-06-10T15:02:45;5.03;;;3.90;;
31262;SDS011;17892;52.080;9.006;2023-06-10T15:05:14;5.38;;;4.43;;
31262;SDS011;17892;52.080;9.006;2023-06-10T15:07:41;5.80;;;4.45;;
31262;SDS011;17892;52.080;9.006;2023-06-10T15:10:07;6.80;;;4.22;;
31262;SDS011;17892;52.080;9.006;2023-06-10T15:12:33;5.60;;;4.00;;
31262;SDS011;17892;52.080;9.006;2023-06-10T15:14:59;4.90;;;4.13;;